< < Back
Terminal Aerodrome Forecast


Current Version              Previous Versions:   1  2  3  4  5  6  7  8  9  

Terminal Aerodrome Forecast

029
FTUS44 KBMX 300154 AAA
TAFMGM
TAF AMD
KMGM 300154Z 3002/3024 33015G25KT 5SM TSRA BR OVC030CB
     FM300300 02009G15KT P6SM OVC050
     FM300500 05004KT P6SM OVC060
      TEMPO 3009/3013 4SM BR
     FM301400 16008KT P6SM BKN250=

Latest METAR

310
SAUS80 KWBC 302000 RRB
MTRMGM
METAR KMGM 301953Z 20009KT 10SM CLR 30/18 A2990 RMK AO2 SLP123
T03000183


USA.gov is the U.S. government's official web portal to all federal, state and local government web resources and services.